Date,TemperatureHighF,TemperatureAvgF,TemperatureLowF,DewpointHighF,DewpointAvgF,DewpointLowF,HumidityHigh,HumidityAvg,HumidityLow,PressureMaxIn,PressureMinIn,WindSpeedMaxMPH,WindSpeedAvgMPH,GustSpeedMaxMPH,PrecipitationSumIn
2013-9-1,82.0,53.5,39.0,47.0,39.9,36.0,92,66,19,0.00,40.00,1,0,3,0.00
2013-9-2,61.0,55.7,51.0,57.0,51.4,44.0,95,86,70,0.00,40.00,1,0,8,0.33
2013-9-3,79.0,63.4,55.0,61.0,56.6,54.0,96,81,44,0.00,40.00,3,0,11,0.10
2013-9-4,81.0,62.6,51.0,58.0,53.9,49.0,95,77,36,0.00,40.00,3,0,7,0.09
2013-9-5,84.0,64.9,53.0,57.0,53.0,50.0,94,70,32,0.00,40.00,3,0,13,0.00
2013-9-6,81.0,60.3,48.0,56.0,51.9,46.0,94,77,36,0.00,40.00,3,0,7,0.54
2013-9-7,69.0,58.2,54.0,58.0,52.0,-99.9,96,83,46,0.00,40.00,4,0,12,0.25
2013-9-8,70.0,56.1,49.0,56.0,49.6,46.0,95,81,51,0.00,40.00,5,0,23,0.05
2013-9-9,70.0,53.9,45.0,51.0,46.4,43.0,96,79,43,0.00,40.00,4,0,9,0.05
2013-9-10,75.0,54.4,42.0,52.0,44.5,40.0,94,73,35,0.00,40.00,2,0,4,0.01
2013-9-11,72.0,56.2,43.0,56.0,47.7,41.0,94,76,40,0.00,40.00,5,1,12,0.06
2013-9-12,67.0,60.3,53.0,52.0,48.4,45.0,92,66,53,0.00,40.00,6,0,14,0.08
2013-9-13,73.0,55.9,47.0,53.0,49.2,45.0,96,80,45,0.00,40.00,0,0,0,0.01
2013-9-14,69.0,58.2,50.0,52.0,46.8,-99.9,93,70,47,0.00,40.00,0,0,0,0.00
2013-9-15,68.0,56.3,49.0,55.0,51.0,47.0,94,83,56,0.00,40.00,0,0,0,0.04
2013-9-16,76.0,58.8,45.0,54.0,49.0,44.0,96,74,38,0.00,40.00,0,0,0,0.02
2013-9-17,64.0,52.4,46.0,54.0,48.1,44.0,94,86,58,0.00,40.00,5,0,15,0.55
2013-9-18,47.0,45.3,40.0,46.0,42.2,35.0,95,89,76,0.00,40.00,3,0,22,0.57
2013-9-19,59.0,43.7,34.0,40.0,35.1,32.0,94,75,38,0.00,40.00,3,0,6,0.02
2013-9-20,71.0,44.3,31.0,41.0,33.4,29.0,95,73,22,0.00,40.00,3,0,6,0.01
2013-9-21,75.0,50.2,33.0,42.0,33.6,-99.9,94,64,23,0.00,40.00,4,1,18,0.01
2013-9-22,67.0,53.7,46.0,46.0,40.2,32.0,88,63,27,0.00,40.00,4,1,18,0.00
2013-9-23,60.0,48.7,39.0,37.0,34.2,31.0,84,60,35,0.00,40.00,7,1,20,0.00
2013-9-24,69.0,49.1,34.0,39.0,34.2,30.0,90,62,26,0.00,40.00,7,1,26,0.00
2013-9-25,49.0,40.7,31.0,42.0,37.8,29.0,93,89,70,0.00,40.00,5,0,15,1.01
2013-9-26,43.0,36.2,31.0,37.0,33.1,29.0,100,89,71,0.00,40.00,3,0,7,0.17
2013-9-27,44.0,37.5,34.0,34.0,31.4,27.0,94,80,56,0.00,40.00,4,1,16,0.04
2013-9-28,52.0,42.1,38.0,37.0,31.1,-99.9,84,67,52,0.00,40.00,5,1,16,0.01
2013-9-29,54.0,46.4,37.0,41.0,34.5,31.0,85,65,46,0.00,40.00,7,1,20,0.01
2013-9-30,61.0,51.7,44.0,45.0,40.1,31.0,89,66,43,0.00,40.00,11,3,31,0.14